Time;durP1;ratioP1;P1;durP2;ratioP2;P2;SDS_P1;SDS_P2;PMS_P1;PMS_P2;Temp;Humidity;BMP_temperature;BMP_pressure;BME280_temperature;BME280_humidity;BME280_pressure;Samples;Min_cycle;Max_cycle;Signal;HPM_P1;HPM_P2
2021/01/27 00:02:20;;;;;;;4.67;2.53;;;0.60;87.00;;;;;;5022530;28;20728;-79
2021/01/27 00:04:46;;;;;;;5.00;2.23;;;0.60;86.70;;;;;;5016454;28;20209;-83
2021/01/27 00:07:12;;;;;;;3.73;2.80;;;0.70;86.20;;;;;;5017084;28;20319;-82
2021/01/27 00:09:39;;;;;;;2.97;2.50;;;0.60;86.20;;;;;;5016923;28;20942;-87
2021/01/27 00:12:06;;;;;;;4.63;2.77;;;0.60;86.20;;;;;;5020867;28;20224;-84
2021/01/27 00:14:32;;;;;;;6.50;3.13;;;0.60;86.20;;;;;;5026475;28;20282;-79
2021/01/27 00:16:59;;;;;;;4.77;2.70;;;0.60;87.40;;;;;;5017282;28;20707;-80
2021/01/27 00:19:25;;;;;;;4.00;2.80;;;0.60;87.30;;;;;;5027911;28;20209;-79
2021/01/27 00:21:52;;;;;;;4.70;2.77;;;0.60;87.00;;;;;;5016338;28;20307;-80
2021/01/27 00:24:18;;;;;;;4.13;2.70;;;0.60;86.80;;;;;;5023072;28;20341;-82
2021/01/27 00:26:44;;;;;;;4.27;2.70;;;0.60;87.50;;;;;;5023948;28;20572;-79
2021/01/27 00:29:10;;;;;;;4.47;2.60;;;0.70;87.70;;;;;;5026292;28;20230;-80
2021/01/27 00:31:37;;;;;;;5.67;2.73;;;0.70;86.60;;;;;;5024053;28;20624;-78
2021/01/27 00:34:05;;;;;;;6.37;2.73;;;0.80;86.30;;;;;;5029799;28;20284;-79
2021/01/27 00:36:31;;;;;;;5.63;2.60;;;0.80;86.30;;;;;;5026130;28;20622;-79
2021/01/27 00:38:57;;;;;;;2.30;2.00;;;0.80;86.30;;;;;;5022645;28;20208;-83
2021/01/27 00:41:24;;;;;;;3.40;2.30;;;0.80;85.20;;;;;;5023649;28;20230;-81
2021/01/27 00:43:50;;;;;;;5.33;2.70;;;0.80;84.40;;;;;;5022667;28;20293;-82
2021/01/27 00:46:16;;;;;;;5.83;2.20;;;0.70;86.20;;;;;;5021728;28;20238;-84
2021/01/27 00:48:42;;;;;;;3.70;2.10;;;0.70;85.50;;;;;;5022212;28;20763;-79
2021/01/27 00:51:10;;;;;;;3.70;2.23;;;0.60;86.20;;;;;;5025228;28;20281;-79
2021/01/27 00:53:36;;;;;;;4.17;2.40;;;0.60;86.20;;;;;;5022344;28;20278;-80
2021/01/27 00:56:02;;;;;;;3.03;2.23;;;0.60;85.90;;;;;;5019669;28;20205;-81
2021/01/27 00:58:29;;;;;;;4.30;2.27;;;0.60;86.20;;;;;;5023501;28;20205;-79
2021/01/27 01:00:55;;;;;;;4.10;2.27;;;0.60;86.20;;;;;;5021281;28;20230;-79
2021/01/27 01:03:21;;;;;;;2.57;2.20;;;0.70;84.90;;;;;;5023851;28;20230;-78
2021/01/27 01:05:48;;;;;;;3.10;2.27;;;0.70;84.70;;;;;;5025193;28;20207;-78
2021/01/27 01:08:17;;;;;;;3.30;2.30;;;0.80;83.40;;;;;;5019672;28;20289;-79
2021/01/27 01:10:45;;;;;;;3.03;2.43;;;0.80;83.00;;;;;;5023966;28;20210;-80
2021/01/27 01:13:16;;;;;;;3.47;2.37;;;0.80;83.10;;;;;;5025322;28;20240;-78
2021/01/27 01:15:42;;;;;;;4.80;2.27;;;0.80;82.60;;;;;;5012751;28;20615;-79
2021/01/27 01:18:09;;;;;;;5.57;2.40;;;0.70;83.30;;;;;;5027962;28;20733;-79
2021/01/27 01:20:36;;;;;;;3.20;2.37;;;0.70;83.50;;;;;;5025492;28;20199;-78
2021/01/27 01:23:03;;;;;;;3.20;2.20;;;0.70;82.40;;;;;;5025099;28;20232;-79
2021/01/27 01:25:32;;;;;;;3.13;2.53;;;0.70;83.20;;;;;;5020838;28;20268;-84
2021/01/27 01:27:59;;;;;;;2.60;2.20;;;0.80;82.90;;;;;;5022686;28;20287;-80
2021/01/27 01:30:27;;;;;;;3.93;2.40;;;0.80;82.40;;;;;;5027453;28;20825;-78
2021/01/27 01:32:55;;;;;;;4.07;2.37;;;0.70;83.90;;;;;;5027004;28;20618;-83
2021/01/27 01:35:23;;;;;;;2.83;2.10;;;0.70;83.30;;;;;;5021778;28;20210;-82
2021/01/27 01:37:50;;;;;;;3.70;2.10;;;0.60;83.40;;;;;;5014655;28;20543;-79
2021/01/27 01:40:20;;;;;;;3.00;2.00;;;0.60;83.20;;;;;;5025968;28;20653;-78
2021/01/27 01:42:47;;;;;;;3.00;2.27;;;0.60;83.30;;;;;;5023573;28;20228;-84
2021/01/27 01:45:28;;;;;;;5.77;2.67;;;0.60;83.20;;;;;;5015424;28;20202;-78
2021/01/27 01:47:55;;;;;;;3.13;2.20;;;0.50;83.20;;;;;;5021445;28;20238;-78
2021/01/27 01:50:23;;;;;;;6.10;2.50;;;0.50;83.80;;;;;;5022711;28;20257;-78
2021/01/27 01:52:50;;;;;;;5.03;2.27;;;0.40;84.00;;;;;;5022836;28;20230;-86
2021/01/27 01:55:17;;;;;;;2.60;2.30;;;0.40;83.00;;;;;;5019197;28;20200;-79
2021/01/27 01:57:46;;;;;;;5.40;2.30;;;0.40;84.30;;;;;;5020065;28;20220;-78
2021/01/27 02:00:16;;;;;;;4.93;2.57;;;0.40;83.60;;;;;;5021164;28;20222;-87
2021/01/27 02:02:43;;;;;;;4.27;2.47;;;0.40;83.70;;;;;;5020855;28;20240;-79
2021/01/27 02:05:13;;;;;;;3.60;2.10;;;0.40;83.70;;;;;;5024956;28;20199;-78
2021/01/27 02:07:40;;;;;;;4.67;2.30;;;0.40;84.20;;;;;;5022576;28;20675;-80
2021/01/27 02:10:08;;;;;;;4.60;2.30;;;0.40;85.20;;;;;;5014582;28;20199;-80
2021/01/27 02:12:53;;;;;;;4.37;2.43;;;0.40;83.90;;;;;;5020440;28;20655;-78
2021/01/27 02:15:43;;;;;;;2.83;2.30;;;0.40;84.80;;;;;;5019695;28;20222;-81
2021/01/27 02:18:19;;;;;;;4.27;2.30;;;0.40;84.70;;;;;;5025546;28;20228;-78
2021/01/27 02:21:21;;;;;;;3.73;2.20;;;0.50;84.10;;;;;;5023969;28;20198;-77
2021/01/27 02:24:44;;;;;;;2.83;2.30;;;0.50;84.70;;;;;;5015675;28;20218;-79
2021/01/27 02:27:20;;;;;;;2.80;2.50;;;0.50;83.80;;;;;;4969979;28;20277;-81
2021/01/27 02:30:12;;;;;;;3.10;2.50;;;0.50;82.90;;;;;;5019036;28;22111;-89
2021/01/27 02:33:16;;;;;;;3.63;2.30;;;0.50;83.20;;;;;;5017752;28;20242;-85
2021/01/27 02:35:48;;;;;;;5.70;2.40;;;0.50;83.10;;;;;;5019468;28;20249;-78
2021/01/27 02:38:23;;;;;;;4.30;2.60;;;0.50;82.80;;;;;;5021734;28;20252;-80
2021/01/27 02:40:54;;;;;;;3.47;2.53;;;0.50;83.30;;;;;;5018990;28;20204;-78
2021/01/27 02:43:24;;;;;;;6.13;2.80;;;0.40;83.90;;;;;;5027675;28;20224;-78
2021/01/27 02:45:59;;;;;;;3.40;2.10;;;0.40;83.00;;;;;;5021486;28;20195;-80
2021/01/27 02:48:31;;;;;;;2.77;2.00;;;0.30;83.70;;;;;;5021025;28;20233;-79
2021/01/27 02:51:04;;;;;;;3.33;2.17;;;0.30;83.80;;;;;;5019431;28;20771;-79
2021/01/27 02:53:34;;;;;;;2.83;2.30;;;0.30;83.60;;;;;;5023175;28;20198;-78
2021/01/27 02:56:03;;;;;;;3.60;2.53;;;0.30;84.10;;;;;;5030415;28;20206;-86
2021/01/27 02:58:35;;;;;;;3.97;2.33;;;0.40;83.30;;;;;;5026623;28;20222;-78
2021/01/27 03:01:05;;;;;;;4.87;2.47;;;0.50;82.90;;;;;;5023454;28;20225;-85
2021/01/27 03:03:39;;;;;;;3.77;2.30;;;0.40;82.70;;;;;;5023863;28;20592;-79
2021/01/27 03:06:10;;;;;;;4.97;2.53;;;0.40;82.70;;;;;;5029051;28;20198;-80
2021/01/27 03:08:42;;;;;;;2.70;2.40;;;0.40;82.50;;;;;;5016698;28;20226;-78
2021/01/27 03:11:13;;;;;;;4.50;2.47;;;0.30;82.80;;;;;;5015489;28;20204;-78
2021/01/27 03:13:40;;;;;;;4.20;2.53;;;0.20;83.30;;;;;;5024060;28;20707;-81
2021/01/27 03:16:11;;;;;;;2.57;2.30;;;0.10;83.00;;;;;;5015497;28;20661;-80
2021/01/27 03:18:42;;;;;;;5.47;2.37;;;0.10;83.60;;;;;;5016514;28;20204;-77
2021/01/27 03:21:15;;;;;;;3.23;2.40;;;-0.10;84.00;;;;;;5018120;28;20663;-81
2021/01/27 03:23:48;;;;;;;3.20;2.10;;;-0.10;85.20;;;;;;5017986;28;20743;-78
2021/01/27 03:26:20;;;;;;;3.53;2.30;;;-0.20;85.70;;;;;;5023675;28;20234;-78
2021/01/27 03:28:52;;;;;;;3.93;2.33;;;-0.30;85.60;;;;;;5013854;28;20227;-81
2021/01/27 03:31:19;;;;;;;4.43;2.50;;;-0.40;85.50;;;;;;5016429;28;20241;-78
2021/01/27 03:33:50;;;;;;;3.00;2.07;;;-0.50;85.50;;;;;;5021050;28;20208;-77
2021/01/27 03:36:18;;;;;;;3.33;2.23;;;-0.60;85.70;;;;;;5022639;28;20236;-79
2021/01/27 03:38:48;;;;;;;3.37;2.17;;;-0.70;86.50;;;;;;5017216;28;20711;-78
2021/01/27 03:41:18;;;;;;;4.03;2.50;;;-0.70;87.40;;;;;;5025927;28;20225;-80
2021/01/27 03:43:53;;;;;;;4.27;2.13;;;-0.80;87.30;;;;;;5032308;28;20199;-77
2021/01/27 03:46:25;;;;;;;4.87;1.97;;;-0.80;88.10;;;;;;5023060;28;20221;-84
2021/01/27 03:48:57;;;;;;;3.40;2.10;;;-0.90;88.10;;;;;;5028106;28;20213;-79
2021/01/27 03:51:26;;;;;;;4.27;1.97;;;-0.90;88.40;;;;;;5023555;28;20699;-79
2021/01/27 03:53:54;;;;;;;2.93;2.30;;;-1.00;88.50;;;;;;5022798;28;20205;-79
2021/01/27 03:56:40;;;;;;;3.20;2.40;;;-1.10;89.10;;;;;;5024404;28;20573;-89
2021/01/27 03:59:09;;;;;;;4.10;2.00;;;-1.30;89.40;;;;;;5016109;28;20211;-80
2021/01/27 04:01:47;;;;;;;3.57;2.50;;;-1.30;90.10;;;;;;5025922;28;20689;-81
2021/01/27 04:04:14;;;;;;;4.00;2.37;;;-1.40;90.20;;;;;;5020719;28;20216;-87
2021/01/27 04:06:41;;;;;;;2.20;1.90;;;-1.50;90.50;;;;;;5020888;28;20330;-80
2021/01/27 04:09:08;;;;;;;3.30;2.13;;;-1.50;90.50;;;;;;5018746;28;20226;-81
2021/01/27 04:11:34;;;;;;;4.20;2.40;;;-1.40;90.40;;;;;;5027184;28;20218;-80
2021/01/27 04:14:01;;;;;;;2.97;2.27;;;-1.50;90.40;;;;;;5020687;28;20199;-81
2021/01/27 04:16:27;;;;;;;3.13;2.30;;;-1.50;90.40;;;;;;5024117;28;20710;-80
2021/01/27 04:18:54;;;;;;;3.37;2.10;;;-1.50;90.40;;;;;;5018485;28;20203;-80
2021/01/27 04:21:20;;;;;;;6.13;2.60;;;-1.50;90.50;;;;;;5023354;28;20276;-82
2021/01/27 04:23:47;;;;;;;2.53;2.17;;;-1.50;90.40;;;;;;5014189;28;20207;-86
2021/01/27 04:26:13;;;;;;;5.27;2.50;;;-1.60;90.50;;;;;;5015733;28;20245;-80
2021/01/27 04:28:40;;;;;;;2.70;2.13;;;-1.60;90.50;;;;;;5025132;28;20226;-80
2021/01/27 04:31:06;;;;;;;4.73;2.47;;;-1.60;90.50;;;;;;5023335;28;20198;-83
2021/01/27 04:33:32;;;;;;;3.63;2.33;;;-1.70;90.60;;;;;;5023918;28;20199;-83
2021/01/27 04:35:59;;;;;;;3.53;2.80;;;-1.80;90.70;;;;;;5019636;28;20198;-84
2021/01/27 04:38:25;;;;;;;4.07;2.73;;;-1.80;90.70;;;;;;5024331;28;20206;-82
2021/01/27 04:40:55;;;;;;;5.07;2.70;;;-1.70;90.70;;;;;;5022998;28;20927;-88
2021/01/27 04:43:23;;;;;;;4.03;2.67;;;-1.70;90.60;;;;;;5026948;28;20582;-80
2021/01/27 04:45:56;;;;;;;5.20;3.00;;;-1.70;90.50;;;;;;5023276;28;20206;-79
2021/01/27 04:48:32;;;;;;;4.33;2.60;;;-1.70;90.50;;;;;;5022515;28;20237;-80
2021/01/27 04:51:02;;;;;;;4.73;2.80;;;-1.80;90.50;;;;;;5017233;28;20619;-81
2021/01/27 04:53:46;;;;;;;4.27;2.93;;;-1.90;90.60;;;;;;5025176;28;20208;-79
2021/01/27 04:56:33;;;;;;;4.10;2.90;;;-1.90;90.60;;;;;;5028354;28;20281;-79
2021/01/27 04:59:08;;;;;;;4.67;2.53;;;-1.90;90.70;;;;;;5027373;28;20209;-81
2021/01/27 05:01:56;;;;;;;4.27;2.60;;;-1.90;90.70;;;;;;5019043;28;20387;-81
2021/01/27 05:04:33;;;;;;;4.20;2.40;;;-2.00;90.60;;;;;;5026130;28;20206;-80
2021/01/27 05:07:04;;;;;;;2.77;2.20;;;-2.00;90.80;;;;;;5016998;28;20242;-80
2021/01/27 05:09:33;;;;;;;4.83;2.47;;;-2.00;90.90;;;;;;5015245;28;20225;-82
2021/01/27 05:12:03;;;;;;;5.90;2.20;;;-2.00;90.90;;;;;;5019152;28;20279;-80
2021/01/27 05:14:30;;;;;;;4.97;2.67;;;-2.00;90.90;;;;;;5023447;28;20198;-80
2021/01/27 05:16:57;;;;;;;8.20;3.07;;;-2.00;90.80;;;;;;5021858;28;20726;-82
2021/01/27 05:19:23;;;;;;;3.83;2.80;;;-2.10;90.80;;;;;;5021713;28;20202;-79
2021/01/27 05:21:52;;;;;;;4.80;3.13;;;-2.10;90.80;;;;;;5015955;28;20252;-82
2021/01/27 05:24:19;;;;;;;9.47;2.63;;;-2.10;90.80;;;;;;5023023;28;20312;-81
2021/01/27 05:26:51;;;;;;;6.23;2.50;;;-2.20;90.70;;;;;;5021472;28;20226;-80
2021/01/27 05:29:21;;;;;;;5.03;2.73;;;-2.30;90.90;;;;;;5019777;28;20230;-79
2021/01/27 05:32:03;;;;;;;7.17;3.07;;;-2.40;91.00;;;;;;5023779;28;20230;-79
2021/01/27 05:34:31;;;;;;;5.03;2.90;;;-2.40;91.30;;;;;;5021389;28;20191;-79
2021/01/27 05:36:58;;;;;;;3.83;2.47;;;-2.40;91.10;;;;;;5025369;28;20229;-81
2021/01/27 05:39:28;;;;;;;4.57;2.40;;;-2.50;91.10;;;;;;5023904;28;20214;-80
2021/01/27 05:42:28;;;;;;;4.23;2.03;;;-2.40;91.10;;;;;;5026415;28;20226;-81
2021/01/27 05:44:58;;;;;;;4.77;2.20;;;-2.30;91.00;;;;;;5022610;28;20259;-82
2021/01/27 05:47:35;;;;;;;7.67;2.17;;;-2.30;90.90;;;;;;5021234;28;20718;-81
2021/01/27 05:50:16;;;;;;;5.93;2.00;;;-2.30;90.90;;;;;;5020721;28;20227;-82
2021/01/27 05:52:42;;;;;;;3.07;2.03;;;-2.30;90.90;;;;;;5022035;28;20236;-82
2021/01/27 05:55:10;;;;;;;2.67;1.90;;;-2.40;90.80;;;;;;5023711;28;20795;-79
2021/01/27 05:57:37;;;;;;;3.23;2.40;;;-2.40;90.80;;;;;;5023919;28;20228;-84
2021/01/27 06:00:21;;;;;;;5.83;2.20;;;-2.50;90.80;;;;;;5018610;28;20226;-84
2021/01/27 06:02:47;;;;;;;5.03;2.30;;;-2.50;91.00;;;;;;5022723;28;20616;-79
2021/01/27 06:05:15;;;;;;;7.47;2.27;;;-2.50;91.00;;;;;;5016889;28;20577;-81
2021/01/27 06:07:43;;;;;;;7.03;2.57;;;-2.50;91.00;;;;;;5018254;28;20224;-82
2021/01/27 06:10:31;;;;;;;6.53;2.30;;;-2.50;91.10;;;;;;5022946;28;20228;-82
2021/01/27 06:13:33;;;;;;;6.90;2.57;;;-2.50;91.20;;;;;;5024112;28;20218;-81
2021/01/27 06:16:15;;;;;;;3.53;2.27;;;-2.40;91.10;;;;;;5018515;28;20251;-82
2021/01/27 06:18:41;;;;;;;6.23;2.37;;;-2.40;90.80;;;;;;5020029;28;20591;-81
2021/01/27 06:21:31;;;;;;;3.93;2.83;;;-2.40;90.80;;;;;;5011887;28;20195;-80
2021/01/27 06:27:46;;;;;;;4.80;2.00;;;-2.30;90.90;;;;;;5034903;28;20241;-80
2021/01/27 06:30:23;;;;;;;4.47;2.40;;;-2.30;90.80;;;;;;5027640;28;20233;-82
2021/01/27 06:33:13;;;;;;;3.37;2.20;;;-2.30;90.60;;;;;;5020566;28;20227;-81
2021/01/27 06:35:57;;;;;;;4.23;2.10;;;-2.30;90.60;;;;;;5018112;28;20655;-80
2021/01/27 06:38:40;;;;;;;5.43;2.23;;;-2.30;90.50;;;;;;5023983;28;20285;-82
2021/01/27 06:41:23;;;;;;;5.33;2.50;;;-2.30;90.50;;;;;;5024181;28;20281;-84
2021/01/27 06:44:11;;;;;;;4.93;2.53;;;-2.50;90.50;;;;;;5014149;28;20610;-83
2021/01/27 06:47:11;;;;;;;3.10;2.10;;;-2.50;90.70;;;;;;5017846;28;20228;-81
2021/01/27 06:50:05;;;;;;;5.97;2.57;;;-2.60;90.80;;;;;;5021668;28;20228;-80
2021/01/27 06:52:55;;;;;;;7.47;2.50;;;-2.50;90.80;;;;;;5018878;28;20320;-81
2021/01/27 06:55:34;;;;;;;5.50;2.90;;;-2.50;90.80;;;;;;5016408;28;20206;-82
2021/01/27 06:58:41;;;;;;;9.83;3.20;;;-2.40;90.80;;;;;;5022676;28;20309;-84
2021/01/27 07:01:25;;;;;;;6.53;3.40;;;-2.30;90.50;;;;;;4987838;28;20229;-84
2021/01/27 07:04:11;;;;;;;6.83;2.80;;;-2.30;90.30;;;;;;5021722;28;20202;-81
2021/01/27 07:07:16;;;;;;;12.73;2.80;;;-2.20;90.20;;;;;;5016343;28;20215;-82
2021/01/27 07:10:18;;;;;;;6.23;3.60;;;-2.10;90.10;;;;;;5017764;28;20221;-79
2021/01/27 07:12:49;;;;;;;5.07;2.63;;;-2.10;90.10;;;;;;5014118;28;20232;-80
2021/01/27 07:15:25;;;;;;;12.50;3.20;;;-2.10;90.00;;;;;;5017730;28;20198;-82
2021/01/27 07:18:30;;;;;;;10.63;2.60;;;-2.10;89.50;;;;;;5018046;28;20253;-83
2021/01/27 07:21:01;;;;;;;7.30;2.83;;;-2.20;89.40;;;;;;5017772;28;20208;-84
2021/01/27 07:23:42;;;;;;;7.33;2.53;;;-2.20;90.10;;;;;;5021528;28;20204;-84
2021/01/27 07:26:15;;;;;;;6.90;2.80;;;-2.10;90.40;;;;;;5019574;28;20212;-83
2021/01/27 07:28:55;;;;;;;4.83;2.40;;;-1.90;89.80;;;;;;5020121;28;20228;-84
2021/01/27 07:31:26;;;;;;;6.53;3.13;;;-1.80;88.70;;;;;;5015787;28;20257;-81
2021/01/27 07:33:58;;;;;;;9.03;3.20;;;-1.70;87.80;;;;;;5026534;28;20231;-81
2021/01/27 07:36:50;;;;;;;8.37;3.30;;;-1.60;87.00;;;;;;5025517;28;20236;-85
2021/01/27 07:39:25;;;;;;;10.43;4.20;;;-1.40;86.20;;;;;;5018871;28;20241;-78
2021/01/27 07:42:06;;;;;;;10.90;5.13;;;-1.30;85.00;;;;;;4992971;28;20690;-81
2021/01/27 07:44:33;;;;;;;10.67;4.90;;;-1.30;85.00;;;;;;5022209;28;20259;-78
2021/01/27 07:47:18;;;;;;;16.73;6.40;;;-1.20;85.10;;;;;;5016468;28;20417;-80
2021/01/27 07:49:51;;;;;;;18.03;7.07;;;-1.10;85.10;;;;;;5013197;28;20279;-85
2021/01/27 07:52:24;;;;;;;16.70;6.90;;;-1.10;84.70;;;;;;5011889;28;20276;-79
2021/01/27 07:55:03;;;;;;;15.90;5.80;;;-1.20;85.10;;;;;;5013677;28;20213;-81
2021/01/27 07:57:42;;;;;;;11.53;5.43;;;-1.00;84.30;;;;;;5009995;28;20275;-79
2021/01/27 08:00:14;;;;;;;13.20;5.13;;;-0.90;83.50;;;;;;5016012;28;20697;-78
2021/01/27 08:02:59;;;;;;;12.67;4.63;;;-0.90;82.00;;;;;;5020135;28;20234;-83
2021/01/27 08:05:26;;;;;;;10.80;4.57;;;-1.00;82.10;;;;;;5013787;28;20201;-81
2021/01/27 08:08:06;;;;;;;9.17;4.03;;;-0.90;83.10;;;;;;5019684;28;20898;-80
2021/01/27 08:10:36;;;;;;;6.93;3.53;;;-0.90;82.50;;;;;;5018492;28;20535;-79
2021/01/27 08:13:04;;;;;;;10.70;3.70;;;-0.80;82.20;;;;;;5020512;28;20246;-79
2021/01/27 08:15:44;;;;;;;9.63;4.43;;;-0.70;81.70;;;;;;5011776;28;20195;-78
2021/01/27 08:18:19;;;;;;;7.17;3.27;;;-0.60;81.00;;;;;;5010319;28;20230;-79
2021/01/27 08:20:47;;;;;;;7.60;2.90;;;-0.60;80.20;;;;;;5011219;28;20200;-76
2021/01/27 08:23:46;;;;;;;5.30;2.90;;;-0.50;81.30;;;;;;5009622;28;20315;-81
2021/01/27 08:26:49;;;;;;;4.93;3.07;;;-0.20;79.00;;;;;;5012446;28;20262;-77
2021/01/27 08:29:30;;;;;;;4.83;2.77;;;0.10;77.60;;;;;;5010189;28;20711;-81
2021/01/27 08:32:23;;;;;;;5.87;2.93;;;0.40;76.60;;;;;;5012641;28;20218;-85
2021/01/27 08:38:53;;;;;;;5.67;2.67;;;0.80;72.60;;;;;;5026811;28;20318;-77
2021/01/27 08:41:46;;;;;;;6.10;2.60;;;1.00;69.60;;;;;;5015094;28;20324;-81
2021/01/27 08:44:24;;;;;;;8.57;3.30;;;1.40;69.60;;;;;;5001447;28;20248;-82
2021/01/27 08:47:00;;;;;;;5.90;2.63;;;1.80;66.30;;;;;;5018342;28;20238;-78
2021/01/27 08:49:53;;;;;;;4.63;2.67;;;2.30;66.90;;;;;;5017359;28;20227;-83
2021/01/27 08:52:42;;;;;;;6.83;2.87;;;2.80;63.90;;;;;;5016402;28;20249;-77
2021/01/27 08:55:47;;;;;;;6.33;2.20;;;3.00;59.60;;;;;;5011000;28;20241;-79
2021/01/27 08:58:22;;;;;;;5.03;2.43;;;3.00;57.80;;;;;;5014163;28;20230;-82
2021/01/27 09:00:49;;;;;;;5.47;2.60;;;2.70;59.00;;;;;;5015740;28;20598;-78
2021/01/27 09:03:54;;;;;;;8.07;2.50;;;2.50;60.00;;;;;;5014306;28;20234;-84
2021/01/27 09:07:14;;;;;;;3.73;2.30;;;2.30;62.00;;;;;;5021650;28;20804;-79
2021/01/27 09:09:43;;;;;;;8.67;2.50;;;2.20;63.20;;;;;;5021279;28;20694;-78
2021/01/27 09:12:10;;;;;;;5.10;2.33;;;2.70;62.70;;;;;;5016030;28;20302;-83
2021/01/27 09:14:38;;;;;;;11.67;2.77;;;3.00;60.10;;;;;;5018344;28;20191;-81
2021/01/27 09:17:48;;;;;;;3.83;2.10;;;3.40;57.60;;;;;;5017747;28;20215;-82
2021/01/27 09:20:22;;;;;;;4.57;2.53;;;3.60;56.30;;;;;;5023367;28;20221;-82
2021/01/27 09:22:48;;;;;;;3.97;2.30;;;3.50;55.10;;;;;;5018026;28;20241;-84
2021/01/27 09:25:22;;;;;;;3.07;2.00;;;3.70;55.00;;;;;;5021315;28;20199;-80
2021/01/27 09:28:00;;;;;;;3.73;2.00;;;3.80;55.10;;;;;;5017942;28;20364;-82
2021/01/27 09:30:28;;;;;;;3.73;2.30;;;3.80;54.50;;;;;;5020357;28;20219;-84
2021/01/27 09:33:08;;;;;;;3.37;2.40;;;3.80;55.10;;;;;;5026813;28;20230;-81
2021/01/27 09:35:35;;;;;;;4.27;2.30;;;3.60;54.90;;;;;;5023793;28;20195;-84
2021/01/27 09:38:19;;;;;;;4.63;2.60;;;3.50;54.80;;;;;;5024481;28;20232;-81
2021/01/27 09:40:48;;;;;;;5.20;2.70;;;3.60;55.30;;;;;;5024137;28;20191;-81
2021/01/27 09:43:22;;;;;;;4.97;3.23;;;3.60;56.30;;;;;;5018711;28;20227;-84
2021/01/27 09:45:51;;;;;;;3.30;2.17;;;3.40;55.50;;;;;;5023787;28;20245;-82
2021/01/27 09:48:20;;;;;;;4.80;2.47;;;3.30;57.00;;;;;;5023640;28;20218;-82
2021/01/27 09:50:51;;;;;;;4.03;2.40;;;3.80;55.10;;;;;;5029634;28;20195;-80
2021/01/27 09:53:25;;;;;;;4.63;2.13;;;4.20;54.40;;;;;;5020486;28;20682;-83
2021/01/27 09:55:55;;;;;;;4.37;2.10;;;4.90;52.20;;;;;;5017397;28;20234;-82
2021/01/27 09:58:28;;;;;;;4.67;2.40;;;5.40;50.50;;;;;;5022578;28;20235;-82
2021/01/27 10:04:11;;;;;;;4.10;2.90;;;5.70;47.60;;;;;;5025419;28;20243;-86
2021/01/27 10:06:43;;;;;;;6.40;2.50;;;5.30;48.00;;;;;;5026472;28;20234;-83
2021/01/27 10:12:35;;;;;;;4.28;2.60;;;6.00;47.10;;;;;;5038878;28;20233;-81
2021/01/27 10:15:32;;;;;;;4.28;2.10;;;6.00;45.10;;;;;;5031548;28;20555;-81
2021/01/27 10:18:09;;;;;;;3.08;2.20;;;6.20;45.30;;;;;;5037071;28;20265;-81
2021/01/27 10:21:30;;;;;;;3.78;2.25;;;6.30;45.40;;;;;;5028702;28;20203;-81
2021/01/27 10:24:01;;;;;;;4.03;2.30;;;6.10;45.20;;;;;;5030552;28;20306;-80
2021/01/27 10:26:37;;;;;;;2.27;2.00;;;5.50;46.90;;;;;;5024972;28;20694;-81
2021/01/27 10:29:20;;;;;;;3.67;2.22;;;5.50;47.30;;;;;;5033976;28;20222;-83
2021/01/27 10:31:48;;;;;;;2.57;2.00;;;5.50;47.50;;;;;;5028031;28;20768;-82
2021/01/27 10:34:40;;;;;;;3.40;2.10;;;5.40;48.00;;;;;;5022410;28;20206;-81
2021/01/27 10:41:01;;;;;;;3.92;2.40;;;6.10;46.80;;;;;;5025492;28;20182;-81
2021/01/27 10:43:28;;;;;;;3.40;2.20;;;6.60;45.60;;;;;;5026818;28;20238;-87
2021/01/27 10:49:17;;;;;;;3.83;2.30;;;7.70;46.50;;;;;;5031835;28;20241;-81
2021/01/27 10:51:44;;;;;;;6.70;2.15;;;9.10;39.30;;;;;;5037931;28;20237;-82
2021/01/27 10:54:12;;;;;;;2.33;1.85;;;8.80;38.40;;;;;;5042062;28;20252;-81
2021/01/27 10:56:40;;;;;;;3.95;1.92;;;8.90;37.00;;;;;;5033981;28;20230;-85
2021/01/27 10:59:10;;;;;;;4.45;1.70;;;8.40;38.10;;;;;;5030860;28;20685;-82
2021/01/27 11:01:36;;;;;;;5.00;1.80;;;8.40;38.10;;;;;;5028392;28;20258;-83
2021/01/27 11:04:31;;;;;;;2.65;1.67;;;7.80;38.70;;;;;;5042657;28;20203;-82
2021/01/27 11:06:58;;;;;;;2.38;1.80;;;7.80;39.10;;;;;;5032319;28;20231;-83
2021/01/27 11:09:30;;;;;;;2.53;1.90;;;7.50;40.10;;;;;;5031415;28;20594;-82
2021/01/27 11:12:07;;;;;;;3.70;1.83;;;7.50;40.10;;;;;;5028104;28;20209;-83
2021/01/27 11:14:34;;;;;;;3.38;1.65;;;7.30;38.70;;;;;;5030842;28;20199;-84
2021/01/27 11:17:01;;;;;;;3.15;1.60;;;6.90;40.30;;;;;;5030491;28;20312;-87
2021/01/27 11:19:42;;;;;;;4.47;1.73;;;6.80;41.20;;;;;;5036832;28;20573;-83
2021/01/27 11:22:08;;;;;;;3.65;1.60;;;6.70;41.30;;;;;;5034901;28;20244;-81
2021/01/27 11:24:35;;;;;;;1.58;1.40;;;6.40;41.50;;;;;;5028968;28;20195;-87
2021/01/27 11:27:01;;;;;;;2.70;1.57;;;6.10;40.20;;;;;;5024138;28;20245;-87
2021/01/27 11:29:28;;;;;;;1.93;1.43;;;6.00;42.50;;;;;;5024930;28;20230;-83
2021/01/27 11:31:55;;;;;;;1.60;1.40;;;5.80;40.70;;;;;;5019779;28;20513;-80
2021/01/27 11:34:22;;;;;;;3.43;1.60;;;5.40;41.40;;;;;;5021536;28;20985;-79
2021/01/27 11:36:48;;;;;;;3.47;2.07;;;5.30;42.30;;;;;;5013619;28;20222;-80
2021/01/27 11:39:15;;;;;;;2.97;1.67;;;5.20;44.10;;;;;;5020293;28;20207;-82
2021/01/27 11:41:41;;;;;;;3.20;1.70;;;5.20;44.50;;;;;;5017481;28;20537;-84
2021/01/27 11:44:09;;;;;;;3.27;1.87;;;5.20;44.50;;;;;;5014985;28;20213;-83
2021/01/27 11:46:36;;;;;;;3.10;1.83;;;5.50;44.70;;;;;;5013979;28;20301;-84
2021/01/27 11:49:03;;;;;;;2.70;1.43;;;5.40;45.70;;;;;;5018761;28;20214;-79
2021/01/27 11:51:29;;;;;;;3.00;1.93;;;5.30;44.60;;;;;;5014669;28;20231;-86
2021/01/27 11:53:56;;;;;;;6.77;2.10;;;5.10;44.40;;;;;;5017028;28;20676;-80
2021/01/27 11:56:22;;;;;;;6.13;2.00;;;5.10;44.40;;;;;;5017121;28;20759;-82
2021/01/27 11:58:48;;;;;;;2.50;1.90;;;4.90;44.20;;;;;;5015414;28;20198;-80
2021/01/27 12:01:15;;;;;;;2.47;1.80;;;4.70;44.10;;;;;;5017605;28;20201;-81
2021/01/27 12:03:42;;;;;;;2.13;1.70;;;4.50;45.40;;;;;;5018533;28;20260;-80
2021/01/27 12:06:08;;;;;;;3.27;1.83;;;4.70;46.00;;;;;;5008508;28;20608;-89
2021/01/27 12:08:35;;;;;;;2.60;2.00;;;4.90;44.20;;;;;;5011340;28;20666;-80
2021/01/27 12:11:01;;;;;;;3.37;2.03;;;4.70;44.00;;;;;;5017305;28;20202;-84
2021/01/27 12:13:27;;;;;;;2.67;2.00;;;4.50;45.30;;;;;;5018624;28;20221;-84
2021/01/27 12:15:54;;;;;;;3.50;1.83;;;4.40;45.70;;;;;;5014503;28;20199;-81
2021/01/27 12:18:20;;;;;;;4.03;2.27;;;4.30;47.60;;;;;;5015068;28;20628;-80
2021/01/27 12:20:48;;;;;;;3.07;2.07;;;4.30;47.50;;;;;;5017045;28;20309;-87
2021/01/27 12:23:15;;;;;;;3.20;1.90;;;4.20;47.90;;;;;;5016710;28;20223;-81
2021/01/27 12:25:41;;;;;;;5.13;2.47;;;4.20;47.70;;;;;;5018381;28;20203;-83
2021/01/27 12:28:08;;;;;;;3.17;1.93;;;4.10;47.80;;;;;;5018835;28;20222;-82
2021/01/27 12:30:34;;;;;;;2.70;1.80;;;3.90;48.90;;;;;;5019210;28;20265;-82
2021/01/27 12:33:01;;;;;;;2.63;2.03;;;3.50;50.10;;;;;;5014394;28;20233;-80
2021/01/27 12:35:27;;;;;;;3.57;1.83;;;3.60;51.10;;;;;;5022434;28;20307;-85
2021/01/27 12:37:54;;;;;;;4.03;2.13;;;3.70;51.10;;;;;;5019747;28;20272;-84
2021/01/27 12:40:22;;;;;;;3.20;2.20;;;3.70;51.60;;;;;;5019484;28;20203;-81
2021/01/27 12:42:50;;;;;;;4.37;2.40;;;3.80;51.90;;;;;;5020878;28;20227;-82
2021/01/27 12:45:18;;;;;;;4.40;1.97;;;3.80;52.00;;;;;;5027192;28;20200;-81
2021/01/27 12:47:44;;;;;;;2.70;1.87;;;3.70;53.40;;;;;;5019904;28;20235;-85
2021/01/27 12:50:12;;;;;;;2.63;2.07;;;3.70;51.90;;;;;;5016906;28;20911;-81
2021/01/27 12:52:39;;;;;;;3.40;2.00;;;3.70;52.90;;;;;;5017583;28;20289;-83
2021/01/27 12:55:10;;;;;;;4.13;2.30;;;3.60;54.90;;;;;;5018165;28;20557;-81
2021/01/27 12:57:36;;;;;;;2.23;2.03;;;3.70;56.80;;;;;;5015698;28;20238;-83
2021/01/27 13:00:05;;;;;;;3.50;1.87;;;3.70;56.90;;;;;;5022532;28;20293;-85
2021/01/27 13:02:32;;;;;;;2.40;1.70;;;3.70;56.80;;;;;;5019525;28;20219;-78
2021/01/27 13:04:58;;;;;;;4.37;2.00;;;3.90;56.80;;;;;;5015794;28;20604;-83
2021/01/27 13:07:24;;;;;;;3.20;2.10;;;4.20;56.20;;;;;;5018060;28;20453;-85
2021/01/27 13:09:50;;;;;;;3.30;2.13;;;4.10;56.00;;;;;;5021185;28;20659;-87
2021/01/27 13:12:18;;;;;;;2.27;2.07;;;4.20;56.60;;;;;;5017701;28;20222;-90
2021/01/27 13:14:44;;;;;;;2.63;1.97;;;4.20;56.50;;;;;;5014604;28;20264;-84
2021/01/27 13:17:11;;;;;;;4.17;1.97;;;4.10;57.50;;;;;;5023326;28;20223;-82
2021/01/27 13:19:37;;;;;;;2.43;2.03;;;3.80;57.80;;;;;;5034470;28;20307;-89
2021/01/27 13:22:03;;;;;;;2.53;2.00;;;3.90;58.30;;;;;;5023145;28;20233;-80
2021/01/27 13:24:29;;;;;;;3.07;1.97;;;3.90;58.80;;;;;;5016579;28;20208;-84
2021/01/27 13:26:56;;;;;;;2.27;1.60;;;4.00;57.90;;;;;;5019546;28;20318;-80
2021/01/27 13:29:23;;;;;;;2.87;1.67;;;4.00;60.10;;;;;;5025846;28;20237;-84
2021/01/27 13:31:49;;;;;;;2.23;1.73;;;3.90;60.30;;;;;;5017004;28;20227;-83
2021/01/27 13:34:16;;;;;;;1.70;1.60;;;3.90;60.90;;;;;;5027800;28;20684;-82
2021/01/27 13:36:42;;;;;;;2.50;1.60;;;3.90;62.10;;;;;;5015658;28;20768;-81
2021/01/27 13:39:09;;;;;;;2.50;1.70;;;4.00;63.20;;;;;;5009477;28;20205;-82
2021/01/27 13:41:36;;;;;;;3.37;1.70;;;3.90;63.30;;;;;;5012602;28;20227;-88
2021/01/27 13:44:02;;;;;;;2.07;1.77;;;3.90;64.60;;;;;;5009251;28;20260;-84
2021/01/27 13:46:30;;;;;;;1.80;1.50;;;3.90;67.50;;;;;;5014279;28;20241;-80